CheckWX is a tool to help pilots better visualize weather data.  It is not intended as a substitute for an official pre-flight weather briefing.

06:51:49 UTC

SLTR METAR
Teniente Av. Jorge Henrich Arauz Airport
Trinidad, Bolivia
Current

8 hours ago

SLTR 222300Z 00000KT 9999 NSC 27/24 Q1008
Observed
Feb-22 @ 23:00 UTC
Visibility
10,000+ meters
Flight Rules
VFR
Cloud Levels
  • Clear skies
Temperature
27°C / 81°F
Dewpoint
24°C / 75°F
Humidity
84%
Altimeter
29.76" Hg
Pressure
1007.92 hPa
Previous

9 hours ago

SLTR 222200Z 36005KT 9999 FEW017 BKN200 28/24 Q1008
Observed
Feb-22 @ 22:00 UTC
Wind
  • 360° at 5 KTS
Visibility
10,000+ meters
Flight Rules
VFR
Cloud Levels
  • Few at 1,700' AGL
  • Broken at 20,000' AGL
Temperature
28°C / 82°F
Dewpoint
24°C / 75°F
Humidity
79%
Altimeter
29.76" Hg
Pressure
1007.92 hPa